createdAt,value
2023-08-31T00:01:49.599Z,95809.22
2023-08-31T00:04:46.554Z,95801.41
2023-08-31T00:07:43.490Z,95794.69
2023-08-31T00:10:41.076Z,95801.81
2023-08-31T00:13:39.350Z,95813.84
2023-08-31T00:16:37.833Z,95821.66
2023-08-31T00:19:35.126Z,95812.16
2023-08-31T00:22:31.998Z,95815.38
2023-08-31T00:25:29.810Z,95820.97
2023-08-31T00:28:28.400Z,95829.44
2023-08-31T00:31:25.600Z,95836.88
2023-08-31T00:34:23.023Z,95828.25
2023-08-31T00:37:22.367Z,95829.56
2023-08-31T00:40:19.450Z,95820.16
2023-08-31T00:43:16.974Z,95826.63
2023-08-31T00:46:15.842Z,95816.34
2023-08-31T00:49:13.959Z,95819.06
2023-08-31T00:52:11.145Z,95814.91
2023-08-31T00:55:09.420Z,95813.78
2023-08-31T00:58:06.436Z,95821.81
2023-08-31T01:01:32.175Z,95818.75
2023-08-31T01:04:53.835Z,95821.81
2023-08-31T01:08:19.573Z,95823.47
2023-08-31T01:11:33.166Z,95818.63
2023-08-31T01:15:00.548Z,95820.34
2023-08-31T01:18:01.674Z,95828.94
2023-08-31T01:21:20.790Z,95823.84
2023-08-31T01:24:18.240Z,95820.63
2023-08-31T01:27:15.901Z,95818.91
2023-08-31T01:30:12.921Z,95822.03
2023-08-31T01:33:10.120Z,95830.69
2023-08-31T01:36:29.706Z,95833.31
2023-08-31T01:40:12.968Z,95823.94
2023-08-31T01:43:12.083Z,95833.00
2023-08-31T01:46:09.535Z,95835.75
2023-08-31T01:49:06.889Z,95839.53
2023-08-31T01:52:03.959Z,95840.31
2023-08-31T01:55:01.054Z,95838.63
2023-08-31T01:57:57.978Z,95840.75
2023-08-31T02:00:54.946Z,95842.59
2023-08-31T02:03:52.089Z,95840.13
2023-08-31T02:06:49.044Z,95845.91
2023-08-31T02:09:46.103Z,95843.00
2023-08-31T02:12:42.993Z,95846.75
2023-08-31T02:15:40.296Z,95847.53
2023-08-31T02:18:37.179Z,95843.84
2023-08-31T02:21:34.073Z,95854.56
2023-08-31T02:24:31.012Z,95850.63
2023-08-31T02:27:28.419Z,95851.75
2023-08-31T02:30:25.323Z,95853.88
2023-08-31T02:33:22.363Z,95857.22
2023-08-31T02:36:21.510Z,95860.03
2023-08-31T02:39:18.392Z,95867.38
2023-08-31T02:42:16.010Z,95864.53
2023-08-31T02:45:12.993Z,95868.50
2023-08-31T02:48:10.086Z,95874.66
2023-08-31T02:51:07.070Z,95863.53
2023-08-31T02:54:05.710Z,95871.44
2023-08-31T02:57:03.336Z,95863.78
2023-08-31T03:00:00.409Z,95860.97
2023-08-31T03:02:57.473Z,95870.50
2023-08-31T03:05:57.560Z,95867.56
2023-08-31T03:08:54.512Z,95866.16
2023-08-31T03:11:51.352Z,95860.78
2023-08-31T03:14:49.481Z,95861.84
2023-08-31T03:17:46.386Z,95868.94
2023-08-31T03:20:43.355Z,95868.75
2023-08-31T03:23:40.232Z,95871.34
2023-08-31T03:26:37.401Z,95872.06
2023-08-31T03:29:35.396Z,95873.91
2023-08-31T03:32:32.396Z,95876.63
2023-08-31T03:35:30.037Z,95880.50
2023-08-31T03:38:26.941Z,95880.00
2023-08-31T03:41:24.030Z,95885.13
2023-08-31T03:44:22.960Z,95878.94
2023-08-31T03:47:19.844Z,95884.03
2023-08-31T03:50:16.780Z,95893.53
2023-08-31T03:53:13.961Z,95894.28
2023-08-31T03:56:11.677Z,95890.88
2023-08-31T03:59:08.569Z,95891.56
2023-08-31T04:02:05.572Z,95888.84
2023-08-31T04:05:02.439Z,95890.13
2023-08-31T04:07:59.387Z,95894.03
2023-08-31T04:10:56.290Z,95902.94
2023-08-31T04:13:53.145Z,95899.16
2023-08-31T04:16:51.383Z,95906.91
2023-08-31T04:19:48.308Z,95919.56
2023-08-31T04:22:45.229Z,95916.16
2023-08-31T04:25:43.087Z,95909.38
2023-08-31T04:28:43.534Z,95929.31
2023-08-31T04:31:40.775Z,95921.09
2023-08-31T04:34:37.731Z,95928.91
2023-08-31T04:37:34.946Z,95931.13
2023-08-31T04:40:32.191Z,95932.56
2023-08-31T04:43:29.287Z,95927.09
2023-08-31T04:46:26.665Z,95930.41
2023-08-31T04:49:23.769Z,95930.66
2023-08-31T04:52:20.708Z,95933.94
2023-08-31T04:55:17.647Z,95943.03
2023-08-31T04:58:14.520Z,95943.31
2023-08-31T05:01:11.480Z,95958.34
2023-08-31T05:04:08.490Z,95958.09
2023-08-31T05:07:05.475Z,95970.75
2023-08-31T05:10:02.610Z,95963.16
2023-08-31T05:12:59.501Z,95963.13
2023-08-31T05:15:56.442Z,95964.13
2023-08-31T05:18:53.449Z,95966.31
2023-08-31T05:21:50.340Z,95967.28
2023-08-31T05:24:47.324Z,95970.97
2023-08-31T05:27:44.262Z,95979.50
2023-08-31T05:30:52.091Z,95980.13
2023-08-31T05:33:49.061Z,95985.41
2023-08-31T05:36:45.956Z,95992.44
2023-08-31T05:39:42.859Z,95983.78
2023-08-31T05:42:39.848Z,95988.88
2023-08-31T05:45:36.768Z,96002.19
2023-08-31T05:48:35.781Z,96000.81
2023-08-31T05:51:32.680Z,96005.06
2023-08-31T05:54:29.540Z,96005.78
2023-08-31T05:57:28.875Z,96011.22
2023-08-31T06:00:25.842Z,96015.94
2023-08-31T06:03:22.734Z,96017.69
2023-08-31T06:06:19.744Z,96014.81
2023-08-31T06:09:17.435Z,96025.84
2023-08-31T06:12:14.402Z,96020.00
2023-08-31T06:15:11.465Z,96023.38
2023-08-31T06:18:08.739Z,96026.78
2023-08-31T06:21:05.939Z,96025.66
2023-08-31T06:24:03.750Z,96029.94
2023-08-31T06:27:01.171Z,96021.31
2023-08-31T06:29:58.096Z,96024.91
2023-08-31T06:32:55.281Z,96022.63
2023-08-31T06:35:55.331Z,96027.00
2023-08-31T06:38:52.230Z,96022.09
2023-08-31T06:41:50.316Z,96026.66
2023-08-31T06:44:47.601Z,96028.94
2023-08-31T06:47:44.699Z,96033.47
2023-08-31T06:50:41.681Z,96031.22
2023-08-31T06:53:38.680Z,96034.16
2023-08-31T06:56:36.536Z,96043.41
2023-08-31T06:59:33.487Z,96034.22
2023-08-31T07:02:30.570Z,96045.88
2023-08-31T07:05:29.048Z,96037.00
2023-08-31T07:08:26.359Z,96047.31
2023-08-31T07:11:23.370Z,96049.22
2023-08-31T07:14:20.331Z,96046.97
2023-08-31T07:17:21.236Z,96040.31
2023-08-31T07:20:18.902Z,96046.53
2023-08-31T07:23:15.870Z,96052.22
2023-08-31T07:26:12.824Z,96059.63
2023-08-31T07:29:09.928Z,96064.56
2023-08-31T07:32:06.835Z,96069.56
2023-08-31T07:35:05.895Z,96067.56
2023-08-31T07:38:02.898Z,96074.56
2023-08-31T07:41:00.688Z,96070.97
2023-08-31T07:44:04.037Z,96069.69
2023-08-31T07:47:03.567Z,96074.00
2023-08-31T07:50:00.734Z,96083.75
2023-08-31T07:52:57.697Z,96087.88
2023-08-31T07:55:56.233Z,96086.25
2023-08-31T07:58:53.200Z,96085.75
2023-08-31T08:01:50.196Z,96097.56
2023-08-31T08:04:47.542Z,96096.75
2023-08-31T08:07:44.719Z,96097.25
2023-08-31T08:10:42.058Z,96096.06
2023-08-31T08:13:38.951Z,96101.44
2023-08-31T08:16:36.772Z,96100.41
2023-08-31T08:19:33.842Z,96102.16
2023-08-31T08:22:30.831Z,96097.75
2023-08-31T08:25:27.909Z,96097.41
2023-08-31T08:28:24.833Z,96101.50
2023-08-31T08:31:23.356Z,96100.34
2023-08-31T08:34:20.961Z,96095.50
2023-08-31T08:37:18.107Z,96092.16
2023-08-31T08:40:15.042Z,96091.84
2023-08-31T08:43:12.588Z,96087.66
2023-08-31T08:46:10.757Z,96098.16
2023-08-31T08:49:08.511Z,96091.25
2023-08-31T08:52:06.694Z,96092.03
2023-08-31T08:55:04.246Z,96092.91
2023-08-31T08:58:01.300Z,96086.19
2023-08-31T09:00:58.361Z,96093.38
2023-08-31T09:03:55.232Z,96093.16
2023-08-31T09:06:52.622Z,96109.88
2023-08-31T09:09:51.529Z,96098.91
2023-08-31T09:12:48.456Z,96099.72
2023-08-31T09:15:49.988Z,96099.47
2023-08-31T09:18:46.911Z,96113.22
2023-08-31T09:21:43.798Z,96114.59
2023-08-31T09:24:45.228Z,96121.00
2023-08-31T09:27:45.688Z,96116.06
2023-08-31T09:30:43.865Z,96116.16
2023-08-31T09:33:53.851Z,96118.75
2023-08-31T09:36:51.416Z,96119.63
2023-08-31T09:39:48.302Z,96121.13
2023-08-31T09:42:45.258Z,96122.34
2023-08-31T09:45:46.028Z,96114.28
2023-08-31T09:48:44.482Z,96116.06
2023-08-31T09:51:47.549Z,96121.19
2023-08-31T09:54:45.749Z,96118.50
2023-08-31T09:57:47.253Z,96133.84
2023-08-31T10:00:47.786Z,96124.78
2023-08-31T10:03:46.330Z,96128.47
2023-08-31T10:06:44.123Z,96125.88
2023-08-31T10:09:41.571Z,96123.06
2023-08-31T10:12:39.995Z,96131.13
2023-08-31T10:15:37.625Z,96127.75
2023-08-31T10:18:37.000Z,96133.69
2023-08-31T10:21:34.787Z,96129.19
2023-08-31T10:25:16.516Z,96124.00
2023-08-31T10:28:24.959Z,96127.03
2023-08-31T10:31:25.405Z,96146.00
2023-08-31T10:34:38.560Z,96134.69
2023-08-31T10:37:35.526Z,96149.78
2023-08-31T10:40:33.769Z,96144.63
2023-08-31T10:43:59.168Z,96154.69
2023-08-31T10:46:56.425Z,96146.28
2023-08-31T10:49:54.657Z,96152.47
2023-08-31T10:52:51.655Z,96147.19
2023-08-31T10:55:53.757Z,96138.28
2023-08-31T10:59:01.017Z,96120.59
2023-08-31T11:02:01.931Z,96120.31
2023-08-31T11:05:18.521Z,96124.53
2023-08-31T11:08:15.948Z,96118.03
2023-08-31T11:11:12.920Z,96119.44
2023-08-31T11:14:10.731Z,96132.53
2023-08-31T11:17:08.454Z,96116.41
2023-08-31T11:20:06.844Z,96126.63
2023-08-31T11:23:04.806Z,96119.94
2023-08-31T11:26:01.810Z,96109.25
2023-08-31T11:28:58.702Z,96112.88
2023-08-31T11:32:01.442Z,96114.34
2023-08-31T11:34:58.604Z,96116.69
2023-08-31T11:37:57.570Z,96115.66
2023-08-31T11:40:58.527Z,96122.19
2023-08-31T11:43:55.606Z,96114.84
2023-08-31T11:46:53.149Z,96120.59
2023-08-31T11:49:50.658Z,96126.97
2023-08-31T11:52:48.454Z,96118.09
2023-08-31T11:55:53.564Z,96134.78
2023-08-31T11:59:04.563Z,96128.75
2023-08-31T12:02:02.293Z,96131.31
2023-08-31T12:04:59.265Z,96130.97
2023-08-31T12:07:57.485Z,96138.72
2023-08-31T12:10:55.615Z,96132.41
2023-08-31T12:13:52.542Z,96130.28
2023-08-31T12:16:50.783Z,96132.69
2023-08-31T12:19:47.707Z,96125.69
2023-08-31T12:22:44.563Z,96128.69
2023-08-31T12:25:50.672Z,96135.19
2023-08-31T12:28:47.558Z,96138.47
2023-08-31T12:31:44.732Z,96140.59
2023-08-31T12:34:41.748Z,96140.69
2023-08-31T12:37:39.675Z,96149.13
2023-08-31T12:40:37.230Z,96153.38
2023-08-31T12:43:35.901Z,96165.09
2023-08-31T12:46:33.218Z,96170.38
2023-08-31T12:49:30.254Z,96177.69
2023-08-31T12:52:27.156Z,96190.19
2023-08-31T12:55:24.164Z,96169.75
2023-08-31T12:58:22.956Z,96176.78
2023-08-31T13:01:22.411Z,96177.19
2023-08-31T13:04:19.423Z,96167.69
2023-08-31T13:07:16.322Z,96166.78
2023-08-31T13:10:13.344Z,96166.75
2023-08-31T13:13:11.027Z,96163.00
2023-08-31T13:16:08.333Z,96161.00
2023-08-31T13:19:05.444Z,96163.06
2023-08-31T13:22:02.323Z,96163.94
2023-08-31T13:24:59.224Z,96161.38
2023-08-31T13:27:56.242Z,96153.72
2023-08-31T13:31:01.390Z,96152.06
2023-08-31T13:33:58.508Z,96155.31
2023-08-31T13:36:55.474Z,96152.91
2023-08-31T13:39:55.607Z,96151.75
2023-08-31T13:43:04.038Z,96145.72
2023-08-31T13:46:01.012Z,96143.44
2023-08-31T13:48:58.286Z,96146.84
2023-08-31T13:51:55.511Z,96136.53
2023-08-31T13:54:52.397Z,96137.25
2023-08-31T13:57:49.339Z,96151.22
2023-08-31T14:00:46.234Z,96140.06
2023-08-31T14:03:43.866Z,96139.47
2023-08-31T14:06:40.854Z,96140.56
2023-08-31T14:09:37.833Z,96136.25
2023-08-31T14:12:35.525Z,96131.63
2023-08-31T14:15:32.475Z,96128.44
2023-08-31T14:18:33.095Z,96143.31
2023-08-31T14:21:30.019Z,96152.53
2023-08-31T14:24:26.935Z,96146.34
2023-08-31T14:27:27.144Z,96140.91
2023-08-31T14:30:24.014Z,96142.78
2023-08-31T14:33:20.954Z,96143.91
2023-08-31T14:36:18.166Z,96140.59
2023-08-31T14:39:16.105Z,96145.22
2023-08-31T14:42:13.062Z,96150.03
2023-08-31T14:45:10.340Z,96142.94
2023-08-31T14:48:07.815Z,96148.00
2023-08-31T14:51:04.733Z,96147.44
2023-08-31T14:54:01.634Z,96150.00
2023-08-31T14:56:58.532Z,96147.56
2023-08-31T14:59:55.435Z,96150.63
2023-08-31T15:02:52.542Z,96167.88
2023-08-31T15:05:50.748Z,96172.34
2023-08-31T15:08:47.759Z,96175.06
2023-08-31T15:11:45.829Z,96179.88
2023-08-31T15:14:42.800Z,96183.28
2023-08-31T15:17:39.755Z,96184.50
2023-08-31T15:20:38.720Z,96189.91
2023-08-31T15:23:35.650Z,96181.59
2023-08-31T15:26:32.630Z,96190.25
2023-08-31T15:29:29.955Z,96200.13
2023-08-31T15:32:27.391Z,96203.94
2023-08-31T15:35:24.314Z,96202.34
2023-08-31T15:38:21.305Z,96213.03
2023-08-31T15:41:18.386Z,96212.19
2023-08-31T15:44:15.289Z,96207.31
2023-08-31T15:47:12.225Z,96201.81
2023-08-31T15:50:10.166Z,96203.16
2023-08-31T15:53:07.378Z,96200.75
2023-08-31T15:56:05.697Z,96197.09
2023-08-31T15:59:02.932Z,96189.66
2023-08-31T16:01:59.918Z,96191.94
2023-08-31T16:04:56.811Z,96190.69
2023-08-31T16:07:53.745Z,96184.69
2023-08-31T16:10:52.171Z,96192.00
2023-08-31T16:13:49.255Z,96187.13
2023-08-31T16:16:46.872Z,96186.06
2023-08-31T16:19:43.895Z,96189.88
2023-08-31T16:22:41.478Z,96190.03
2023-08-31T16:25:38.563Z,96194.16
2023-08-31T16:28:36.951Z,96196.19
2023-08-31T16:31:33.975Z,96188.44
2023-08-31T16:34:32.013Z,96189.38
2023-08-31T16:37:28.904Z,96189.38
2023-08-31T16:40:25.858Z,96193.28
2023-08-31T16:43:25.021Z,96197.91
2023-08-31T16:46:21.964Z,96193.84
2023-08-31T16:49:19.772Z,96198.63
2023-08-31T16:52:16.708Z,96191.16
2023-08-31T16:55:13.689Z,96196.03
2023-08-31T16:58:10.734Z,96205.13
2023-08-31T17:01:07.918Z,96193.44
2023-08-31T17:04:05.525Z,96204.09
2023-08-31T17:07:02.436Z,96201.31
2023-08-31T17:09:59.397Z,96201.59
2023-08-31T17:12:57.583Z,96199.28
2023-08-31T17:15:54.615Z,96206.19
2023-08-31T17:18:51.548Z,96201.69
2023-08-31T17:21:48.462Z,96199.00
2023-08-31T17:24:45.360Z,96199.88
2023-08-31T17:27:42.831Z,96202.13
2023-08-31T17:30:41.077Z,96200.69
2023-08-31T17:33:38.194Z,96198.00
2023-08-31T17:36:37.690Z,96197.78
2023-08-31T17:39:34.777Z,96204.22
2023-08-31T17:42:31.676Z,96208.41
2023-08-31T17:45:28.585Z,96198.19
2023-08-31T17:48:25.522Z,96202.03
2023-08-31T17:51:22.526Z,96197.97
2023-08-31T17:54:19.562Z,96205.38
2023-08-31T17:57:16.439Z,96204.56
2023-08-31T18:00:14.426Z,96211.00
2023-08-31T18:03:11.977Z,96222.22
2023-08-31T18:06:09.083Z,96222.59
2023-08-31T18:09:06.471Z,96223.25
2023-08-31T18:12:09.814Z,96225.69
2023-08-31T18:15:07.540Z,96225.88
2023-08-31T18:18:05.119Z,96231.41
2023-08-31T18:21:02.171Z,96234.91
2023-08-31T18:23:59.077Z,96239.34
2023-08-31T18:26:56.136Z,96240.00
2023-08-31T18:29:53.419Z,96245.50
2023-08-31T18:32:50.461Z,96251.97
2023-08-31T18:35:56.163Z,96257.66
2023-08-31T18:38:53.077Z,96253.81
2023-08-31T18:41:49.981Z,96266.69
2023-08-31T18:44:46.904Z,96264.88
2023-08-31T18:47:43.839Z,96277.03
2023-08-31T18:50:41.424Z,96273.84
2023-08-31T18:53:38.290Z,96276.06
2023-08-31T18:56:35.246Z,96268.63
2023-08-31T18:59:32.176Z,96265.53
2023-08-31T19:02:29.210Z,96278.50
2023-08-31T19:05:28.243Z,96276.97
2023-08-31T19:08:25.196Z,96290.28
2023-08-31T19:11:22.079Z,96275.13
2023-08-31T19:14:18.928Z,96283.59
2023-08-31T19:17:16.723Z,96280.00
2023-08-31T19:20:18.161Z,96293.09
2023-08-31T19:23:15.166Z,96287.88
2023-08-31T19:26:14.022Z,96297.44
2023-08-31T19:29:11.066Z,96300.16
2023-08-31T19:32:08.700Z,96296.25
2023-08-31T19:35:24.193Z,96297.41
2023-08-31T19:38:24.303Z,96306.63
2023-08-31T19:41:21.387Z,96308.06
2023-08-31T19:44:19.226Z,96316.88
2023-08-31T19:47:16.165Z,96312.22
2023-08-31T19:50:13.088Z,96311.97
2023-08-31T19:53:10.231Z,96314.06
2023-08-31T19:56:07.803Z,96313.16
2023-08-31T19:59:06.552Z,96319.69
2023-08-31T20:02:04.329Z,96313.38
2023-08-31T20:05:02.244Z,96318.44
2023-08-31T20:07:59.189Z,96324.41
2023-08-31T20:10:56.098Z,96319.72
2023-08-31T20:13:58.720Z,96324.19
2023-08-31T20:16:55.728Z,96324.63
2023-08-31T20:19:52.689Z,96333.16
2023-08-31T20:22:50.265Z,96328.44
2023-08-31T20:25:47.199Z,96330.34
2023-08-31T20:28:44.102Z,96327.66
2023-08-31T20:31:41.024Z,96337.75
2023-08-31T20:34:38.025Z,96337.47
2023-08-31T20:37:35.272Z,96333.69
2023-08-31T20:40:39.512Z,96324.66
2023-08-31T20:43:36.435Z,96334.59
2023-08-31T20:46:37.503Z,96330.34
2023-08-31T20:49:34.718Z,96331.28
2023-08-31T20:52:34.253Z,96334.59
2023-08-31T20:55:31.887Z,96331.91
2023-08-31T20:58:28.794Z,96335.38
2023-08-31T21:01:25.741Z,96336.13
2023-08-31T21:04:22.736Z,96349.63
2023-08-31T21:07:19.615Z,96350.13
2023-08-31T21:10:16.675Z,96353.00
2023-08-31T21:13:13.637Z,96346.47
2023-08-31T21:16:10.648Z,96351.19
2023-08-31T21:19:07.706Z,96359.75
2023-08-31T21:22:04.965Z,96363.91
2023-08-31T21:25:01.923Z,96354.25
2023-08-31T21:27:58.834Z,96362.22
2023-08-31T21:30:56.074Z,96355.69
2023-08-31T21:33:53.047Z,96362.59
2023-08-31T21:36:49.906Z,96347.06
2023-08-31T21:39:48.424Z,96355.56
2023-08-31T21:42:45.303Z,96356.94
2023-08-31T21:45:42.269Z,96352.53
2023-08-31T21:48:39.147Z,96363.72
2023-08-31T21:51:36.133Z,96375.13
2023-08-31T21:54:32.990Z,96375.72
2023-08-31T21:57:29.912Z,96371.19
2023-08-31T22:00:26.832Z,96382.63
2023-08-31T22:03:23.965Z,96388.38
2023-08-31T22:06:20.961Z,96376.63
2023-08-31T22:09:19.688Z,96384.06
2023-08-31T22:12:17.255Z,96386.06
2023-08-31T22:15:24.108Z,96380.69
2023-08-31T22:18:21.093Z,96384.06
2023-08-31T22:21:18.466Z,96370.63
2023-08-31T22:24:15.464Z,96383.06
2023-08-31T22:27:14.597Z,96387.44
2023-08-31T22:30:12.605Z,96390.50
2023-08-31T22:33:09.663Z,96384.34
2023-08-31T22:36:06.825Z,96391.16
2023-08-31T22:39:04.276Z,96390.94
2023-08-31T22:42:01.205Z,96387.16
2023-08-31T22:44:58.164Z,96387.63
2023-08-31T22:47:55.124Z,96387.22
2023-08-31T22:51:04.842Z,96377.53
2023-08-31T22:54:01.786Z,96383.69
2023-08-31T22:56:58.870Z,96382.66
2023-08-31T22:59:55.788Z,96377.59
2023-08-31T23:02:52.938Z,96382.91
2023-08-31T23:05:50.143Z,96383.72
2023-08-31T23:08:48.727Z,96395.47
2023-08-31T23:11:45.775Z,96391.91
2023-08-31T23:14:45.896Z,96389.63
2023-08-31T23:17:42.900Z,96389.97
2023-08-31T23:20:39.829Z,96394.50
2023-08-31T23:23:37.519Z,96395.41
2023-08-31T23:26:35.064Z,96396.38
2023-08-31T23:29:31.997Z,96397.59
2023-08-31T23:32:28.895Z,96387.50
2023-08-31T23:35:26.056Z,96390.19
2023-08-31T23:38:26.381Z,96394.09
2023-08-31T23:41:23.844Z,96387.16
2023-08-31T23:44:20.805Z,96385.09
2023-08-31T23:47:17.872Z,96382.84
2023-08-31T23:50:14.844Z,96376.91
2023-08-31T23:53:12.416Z,96369.63
2023-08-31T23:56:10.407Z,96372.63
2023-08-31T23:59:07.989Z,96371.19
